LiveATC.Net - Listen to live air traffic control over the Internet!


ICAO: MUHA  IATA: HAV   Airport: Jose Marti International Airport
City: Havana
Country: Cuba   Continent: North America
MUHA METAR Weather: MUHA 161555Z 02011KT 360V060 9000 SCT030 22/13 Q1023
MUHA Flight Activity (FlightAware)

MUFH Havana FIR (App/Center)
Feed Status: UP   Listeners: 0
Listen in your browser - HTML5 player (in browser, HTML5)
Click here to listen with your own player (launches your MP3 player)
MUFH Havana FIR (App/Center) Audio Archives
FacilityFrequency
Hava Approach120.300
Havana Center120.250
Havana Center123.700
Havana Center124.550
Havana Center133.700
Havana Center135.100

NOTICE

Unauthorized use prohibited. See LiveATC.net Terms of Service


Find LiveATC Audio Streams


Airport/ARTCC Code

Frequency Search
(e.g., 124.400, 128.75)
Site-wide search
 


Browse LiveATC Feeds
Top 50 LiveATC Feeds
LiveATC Feed Map
Bad Weather Areas

LiveATC FAQ
Offer LiveATC feed
Contact LiveATC.net
Press Inquiries

LiveATC on iPhone
LiveATC on Android

Windows Phone
Windows 8/10

LiveATC Mobile
(Mobile browser)

ATC Audio Archives
Interesting Recordings

LiveATC Forums


Home Page
About LiveATC.net
Make a Donation
Terms of Use
Privacy Policy

Canadian Air Freqs

AIRMETs/SIGMETs

FAA Airport Status
Nat'l Airspace Status
Arrival Demand Charts


Server Software By:
Icecast.org
Liquidsoap